sensor_id;sensor_type;location;lat;lon;timestamp;P1;durP1;ratioP1;P2;durP2;ratioP2
53835;SDS011;39737;43.334;21.936;2023-11-21T00:01:33;4.00;;;3.33;;
53835;SDS011;39737;43.334;21.936;2023-11-21T00:04:19;16.73;;;4.60;;
53835;SDS011;39737;43.334;21.936;2023-11-21T00:07:08;6.30;;;3.30;;
53835;SDS011;39737;43.334;21.936;2023-11-21T00:09:54;2.05;;;1.83;;
53835;SDS011;39737;43.334;21.936;2023-11-21T00:12:41;3.03;;;2.83;;
53835;SDS011;39737;43.334;21.936;2023-11-21T00:15:32;7.55;;;3.70;;
53835;SDS011;39737;43.334;21.936;2023-11-21T00:18:19;2.15;;;1.73;;
53835;SDS011;39737;43.334;21.936;2023-11-21T00:21:06;4.53;;;2.28;;
53835;SDS011;39737;43.334;21.936;2023-11-21T00:23:52;5.43;;;3.00;;
53835;SDS011;39737;43.334;21.936;2023-11-21T00:26:39;3.95;;;3.65;;
53835;SDS011;39737;43.334;21.936;2023-11-21T00:29:26;4.25;;;3.53;;
53835;SDS011;39737;43.334;21.936;2023-11-21T00:32:12;14.43;;;3.47;;
53835;SDS011;39737;43.334;21.936;2023-11-21T00:34:59;3.28;;;2.97;;
53835;SDS011;39737;43.334;21.936;2023-11-21T00:37:47;1.05;;;1.05;;
53835;SDS011;39737;43.334;21.936;2023-11-21T00:40:35;2.25;;;1.63;;
53835;SDS011;39737;43.334;21.936;2023-11-21T00:43:22;3.30;;;3.00;;
53835;SDS011;39737;43.334;21.936;2023-11-21T00:46:09;6.13;;;3.97;;
53835;SDS011;39737;43.334;21.936;2023-11-21T00:48:55;6.20;;;4.97;;
53835;SDS011;39737;43.334;21.936;2023-11-21T00:51:42;20.88;;;7.85;;
53835;SDS011;39737;43.334;21.936;2023-11-21T00:54:28;3.90;;;3.58;;
53835;SDS011;39737;43.334;21.936;2023-11-21T00:57:17;14.32;;;4.80;;
53835;SDS011;39737;43.334;21.936;2023-11-21T01:00:04;10.90;;;5.97;;
53835;SDS011;39737;43.334;21.936;2023-11-21T01:03:03;4.30;;;3.78;;
53835;SDS011;39737;43.334;21.936;2023-11-21T01:05:51;4.50;;;4.05;;
53835;SDS011;39737;43.334;21.936;2023-11-21T01:08:37;18.90;;;3.83;;
53835;SDS011;39737;43.334;21.936;2023-11-21T01:11:24;3.92;;;3.67;;
53835;SDS011;39737;43.334;21.936;2023-11-21T01:14:10;3.33;;;2.03;;
53835;SDS011;39737;43.334;21.936;2023-11-21T01:16:56;5.15;;;3.20;;
53835;SDS011;39737;43.334;21.936;2023-11-21T01:19:43;9.23;;;4.00;;
53835;SDS011;39737;43.334;21.936;2023-11-21T01:22:29;2.25;;;2.05;;
53835;SDS011;39737;43.334;21.936;2023-11-21T01:25:15;7.72;;;3.10;;
53835;SDS011;39737;43.334;21.936;2023-11-21T01:28:02;4.85;;;2.97;;
53835;SDS011;39737;43.334;21.936;2023-11-21T01:30:49;2.15;;;2.05;;
53835;SDS011;39737;43.334;21.936;2023-11-21T01:33:37;4.65;;;2.13;;
53835;SDS011;39737;43.334;21.936;2023-11-21T01:36:23;2.67;;;2.03;;
53835;SDS011;39737;43.334;21.936;2023-11-21T01:39:09;2.40;;;2.10;;
53835;SDS011;39737;43.334;21.936;2023-11-21T01:42:01;3.20;;;2.33;;
53835;SDS011;39737;43.334;21.936;2023-11-21T01:44:47;5.00;;;3.25;;
53835;SDS011;39737;43.334;21.936;2023-11-21T01:47:34;5.22;;;2.00;;
53835;SDS011;39737;43.334;21.936;2023-11-21T01:50:22;2.00;;;1.90;;
53835;SDS011;39737;43.334;21.936;2023-11-21T01:53:11;5.20;;;3.40;;
53835;SDS011;39737;43.334;21.936;2023-11-21T01:55:59;1.95;;;1.75;;
53835;SDS011;39737;43.334;21.936;2023-11-21T01:58:46;3.85;;;2.83;;
53835;SDS011;39737;43.334;21.936;2023-11-21T02:01:33;4.55;;;2.92;;
53835;SDS011;39737;43.334;21.936;2023-11-21T02:04:19;2.00;;;1.90;;
53835;SDS011;39737;43.334;21.936;2023-11-21T02:07:07;1.90;;;1.80;;
53835;SDS011;39737;43.334;21.936;2023-11-21T02:09:54;2.50;;;1.73;;
53835;SDS011;39737;43.334;21.936;2023-11-21T02:12:40;2.35;;;2.15;;
53835;SDS011;39737;43.334;21.936;2023-11-21T02:15:26;2.00;;;1.90;;
53835;SDS011;39737;43.334;21.936;2023-11-21T02:18:15;2.85;;;2.30;;
53835;SDS011;39737;43.334;21.936;2023-11-21T02:21:03;3.33;;;3.05;;
53835;SDS011;39737;43.334;21.936;2023-11-21T02:23:50;2.20;;;2.10;;
53835;SDS011;39737;43.334;21.936;2023-11-21T02:26:37;3.30;;;2.15;;
53835;SDS011;39737;43.334;21.936;2023-11-21T02:29:24;3.85;;;2.67;;
53835;SDS011;39737;43.334;21.936;2023-11-21T02:32:14;2.47;;;2.28;;
53835;SDS011;39737;43.334;21.936;2023-11-21T02:35:00;5.03;;;2.35;;
53835;SDS011;39737;43.334;21.936;2023-11-21T02:37:47;2.20;;;2.05;;
53835;SDS011;39737;43.334;21.936;2023-11-21T02:40:34;3.92;;;2.58;;
53835;SDS011;39737;43.334;21.936;2023-11-21T02:43:20;3.80;;;2.47;;
53835;SDS011;39737;43.334;21.936;2023-11-21T02:46:06;8.02;;;2.63;;
53835;SDS011;39737;43.334;21.936;2023-11-21T02:48:54;7.80;;;3.05;;
53835;SDS011;39737;43.334;21.936;2023-11-21T02:51:41;3.83;;;2.47;;
53835;SDS011;39737;43.334;21.936;2023-11-21T02:54:27;1.00;;;1.00;;
53835;SDS011;39737;43.334;21.936;2023-11-21T02:57:13;2.92;;;2.72;;
53835;SDS011;39737;43.334;21.936;2023-11-21T02:59:59;2.13;;;2.03;;
53835;SDS011;39737;43.334;21.936;2023-11-21T03:02:51;2.65;;;1.98;;
53835;SDS011;39737;43.334;21.936;2023-11-21T03:05:37;3.30;;;2.25;;
53835;SDS011;39737;43.334;21.936;2023-11-21T03:08:25;4.15;;;2.17;;
53835;SDS011;39737;43.334;21.936;2023-11-21T03:11:11;2.63;;;2.47;;
53835;SDS011;39737;43.334;21.936;2023-11-21T03:14:00;1.90;;;1.80;;
53835;SDS011;39737;43.334;21.936;2023-11-21T03:16:47;2.03;;;1.92;;
53835;SDS011;39737;43.334;21.936;2023-11-21T03:19:33;3.97;;;2.42;;
53835;SDS011;39737;43.334;21.936;2023-11-21T03:22:19;2.88;;;2.03;;
53835;SDS011;39737;43.334;21.936;2023-11-21T03:25:06;2.47;;;2.00;;
53835;SDS011;39737;43.334;21.936;2023-11-21T03:27:52;2.03;;;1.92;;
53835;SDS011;39737;43.334;21.936;2023-11-21T03:30:39;7.65;;;2.45;;
53835;SDS011;39737;43.334;21.936;2023-11-21T03:33:25;2.70;;;1.95;;
53835;SDS011;39737;43.334;21.936;2023-11-21T03:36:11;5.82;;;2.65;;
53835;SDS011;39737;43.334;21.936;2023-11-21T03:38:58;4.28;;;3.22;;
53835;SDS011;39737;43.334;21.936;2023-11-21T03:41:44;2.47;;;2.28;;
53835;SDS011;39737;43.334;21.936;2023-11-21T03:44:30;10.63;;;2.55;;
53835;SDS011;39737;43.334;21.936;2023-11-21T03:47:16;3.95;;;3.15;;
53835;SDS011;39737;43.334;21.936;2023-11-21T03:50:03;1.20;;;1.20;;
53835;SDS011;39737;43.334;21.936;2023-11-21T03:52:49;2.20;;;1.88;;
53835;SDS011;39737;43.334;21.936;2023-11-21T03:55:35;2.40;;;2.17;;
53835;SDS011;39737;43.334;21.936;2023-11-21T03:58:22;9.25;;;1.83;;
53835;SDS011;39737;43.334;21.936;2023-11-21T04:01:08;3.78;;;1.77;;
53835;SDS011;39737;43.334;21.936;2023-11-21T04:03:54;1.42;;;1.33;;
53835;SDS011;39737;43.334;21.936;2023-11-21T04:06:41;3.70;;;2.88;;
53835;SDS011;39737;43.334;21.936;2023-11-21T04:09:27;9.50;;;4.00;;
53835;SDS011;39737;43.334;21.936;2023-11-21T04:12:14;5.25;;;3.40;;
53835;SDS011;39737;43.334;21.936;2023-11-21T04:15:00;5.55;;;4.70;;
53835;SDS011;39737;43.334;21.936;2023-11-21T04:17:46;36.95;;;6.32;;
53835;SDS011;39737;43.334;21.936;2023-11-21T04:20:33;5.43;;;3.85;;
53835;SDS011;39737;43.334;21.936;2023-11-21T04:23:19;4.28;;;3.45;;
53835;SDS011;39737;43.334;21.936;2023-11-21T04:26:06;4.53;;;3.35;;
53835;SDS011;39737;43.334;21.936;2023-11-21T04:28:52;3.63;;;2.80;;
53835;SDS011;39737;43.334;21.936;2023-11-21T04:31:38;8.50;;;3.47;;
53835;SDS011;39737;43.334;21.936;2023-11-21T04:34:24;2.42;;;2.22;;
53835;SDS011;39737;43.334;21.936;2023-11-21T04:37:10;4.75;;;3.83;;
53835;SDS011;39737;43.334;21.936;2023-11-21T04:39:56;8.82;;;2.50;;
53835;SDS011;39737;43.334;21.936;2023-11-21T04:42:43;14.40;;;6.93;;
53835;SDS011;39737;43.334;21.936;2023-11-21T04:45:30;2.35;;;2.25;;
53835;SDS011;39737;43.334;21.936;2023-11-21T04:48:16;1.40;;;1.40;;
53835;SDS011;39737;43.334;21.936;2023-11-21T04:51:02;6.30;;;2.60;;
53835;SDS011;39737;43.334;21.936;2023-11-21T04:53:50;3.85;;;3.58;;
53835;SDS011;39737;43.334;21.936;2023-11-21T04:56:36;2.65;;;2.42;;
53835;SDS011;39737;43.334;21.936;2023-11-21T04:59:22;3.35;;;2.60;;
53835;SDS011;39737;43.334;21.936;2023-11-21T05:02:13;2.03;;;1.92;;
53835;SDS011;39737;43.334;21.936;2023-11-21T05:05:19;3.08;;;2.53;;
53835;SDS011;39737;43.334;21.936;2023-11-21T05:08:06;2.78;;;2.55;;
53835;SDS011;39737;43.334;21.936;2023-11-21T05:10:52;5.85;;;2.35;;
53835;SDS011;39737;43.334;21.936;2023-11-21T05:13:39;2.40;;;2.00;;
53835;SDS011;39737;43.334;21.936;2023-11-21T05:16:25;1.45;;;1.35;;
53835;SDS011;39737;43.334;21.936;2023-11-21T05:19:13;2.15;;;1.63;;
53835;SDS011;39737;43.334;21.936;2023-11-21T05:21:59;1.40;;;1.30;;
53835;SDS011;39737;43.334;21.936;2023-11-21T05:24:46;3.33;;;3.05;;
53835;SDS011;39737;43.334;21.936;2023-11-21T05:27:32;2.65;;;2.05;;
53835;SDS011;39737;43.334;21.936;2023-11-21T05:30:18;2.72;;;2.30;;
53835;SDS011;39737;43.334;21.936;2023-11-21T05:33:05;1.67;;;1.63;;
53835;SDS011;39737;43.334;21.936;2023-11-21T05:35:51;9.15;;;1.83;;
53835;SDS011;39737;43.334;21.936;2023-11-21T05:38:37;1.15;;;1.15;;
53835;SDS011;39737;43.334;21.936;2023-11-21T05:41:23;3.75;;;2.20;;
53835;SDS011;39737;43.334;21.936;2023-11-21T05:44:10;1.95;;;1.75;;
53835;SDS011;39737;43.334;21.936;2023-11-21T05:46:56;8.48;;;3.55;;
53835;SDS011;39737;43.334;21.936;2023-11-21T05:49:44;2.05;;;1.85;;
53835;SDS011;39737;43.334;21.936;2023-11-21T05:52:31;3.13;;;2.28;;
53835;SDS011;39737;43.334;21.936;2023-11-21T05:55:18;1.58;;;1.45;;
53835;SDS011;39737;43.334;21.936;2023-11-21T05:58:07;2.03;;;1.92;;
53835;SDS011;39737;43.334;21.936;2023-11-21T06:00:53;3.13;;;1.88;;
53835;SDS011;39737;43.334;21.936;2023-11-21T06:03:39;6.32;;;3.25;;
53835;SDS011;39737;43.334;21.936;2023-11-21T06:06:26;3.20;;;2.15;;
53835;SDS011;39737;43.334;21.936;2023-11-21T06:09:12;6.93;;;3.45;;
53835;SDS011;39737;43.334;21.936;2023-11-21T06:11:59;10.73;;;4.32;;
53835;SDS011;39737;43.334;21.936;2023-11-21T06:14:45;5.15;;;3.28;;
53835;SDS011;39737;43.334;21.936;2023-11-21T06:17:31;6.28;;;5.57;;
53835;SDS011;39737;43.334;21.936;2023-11-21T06:20:17;19.13;;;5.40;;
53835;SDS011;39737;43.334;21.936;2023-11-21T06:23:04;13.65;;;7.90;;
53835;SDS011;39737;43.334;21.936;2023-11-21T06:25:51;17.38;;;8.40;;
53835;SDS011;39737;43.334;21.936;2023-11-21T06:28:37;10.27;;;8.45;;
53835;SDS011;39737;43.334;21.936;2023-11-21T06:31:23;30.75;;;10.43;;
53835;SDS011;39737;43.334;21.936;2023-11-21T06:34:10;17.42;;;11.43;;
53835;SDS011;39737;43.334;21.936;2023-11-21T06:36:56;19.30;;;8.07;;
53835;SDS011;39737;43.334;21.936;2023-11-21T06:39:42;29.10;;;10.15;;
53835;SDS011;39737;43.334;21.936;2023-11-21T06:42:28;9.77;;;6.93;;
53835;SDS011;39737;43.334;21.936;2023-11-21T06:45:15;27.33;;;14.80;;
53835;SDS011;39737;43.334;21.936;2023-11-21T06:48:01;20.42;;;8.85;;
53835;SDS011;39737;43.334;21.936;2023-11-21T06:50:47;11.27;;;7.55;;
53835;SDS011;39737;43.334;21.936;2023-11-21T06:53:33;11.85;;;7.05;;
53835;SDS011;39737;43.334;21.936;2023-11-21T06:56:22;19.05;;;10.23;;
53835;SDS011;39737;43.334;21.936;2023-11-21T06:59:09;26.05;;;9.10;;
53835;SDS011;39737;43.334;21.936;2023-11-21T07:01:56;9.73;;;6.90;;
53835;SDS011;39737;43.334;21.936;2023-11-21T07:04:43;3.60;;;3.25;;
53835;SDS011;39737;43.334;21.936;2023-11-21T07:07:29;2.13;;;2.00;;
53835;SDS011;39737;43.334;21.936;2023-11-21T07:10:15;2.45;;;2.25;;
53835;SDS011;39737;43.334;21.936;2023-11-21T07:13:02;2.92;;;1.90;;
53835;SDS011;39737;43.334;21.936;2023-11-21T07:15:49;8.65;;;5.43;;
53835;SDS011;39737;43.334;21.936;2023-11-21T07:18:35;10.60;;;3.83;;
53835;SDS011;39737;43.334;21.936;2023-11-21T07:21:21;5.38;;;4.78;;
53835;SDS011;39737;43.334;21.936;2023-11-21T07:24:07;23.42;;;11.00;;
53835;SDS011;39737;43.334;21.936;2023-11-21T07:26:53;11.40;;;4.55;;
53835;SDS011;39737;43.334;21.936;2023-11-21T07:29:42;3.53;;;2.58;;
53835;SDS011;39737;43.334;21.936;2023-11-21T07:32:28;13.23;;;6.32;;
53835;SDS011;39737;43.334;21.936;2023-11-21T07:35:15;3.85;;;3.55;;
53835;SDS011;39737;43.334;21.936;2023-11-21T07:38:01;4.13;;;3.30;;
53835;SDS011;39737;43.334;21.936;2023-11-21T07:40:47;4.53;;;2.88;;
53835;SDS011;39737;43.334;21.936;2023-11-21T07:43:34;2.97;;;2.75;;
53835;SDS011;39737;43.334;21.936;2023-11-21T07:46:21;8.82;;;3.97;;
53835;SDS011;39737;43.334;21.936;2023-11-21T07:49:08;6.30;;;3.90;;
53835;SDS011;39737;43.334;21.936;2023-11-21T07:51:55;4.50;;;3.83;;
53835;SDS011;39737;43.334;21.936;2023-11-21T07:54:41;1.67;;;1.58;;
53835;SDS011;39737;43.334;21.936;2023-11-21T07:57:27;15.43;;;4.55;;
53835;SDS011;39737;43.334;21.936;2023-11-21T08:00:14;4.30;;;3.28;;
53835;SDS011;39737;43.334;21.936;2023-11-21T08:03:01;3.85;;;3.53;;
53835;SDS011;39737;43.334;21.936;2023-11-21T08:05:47;15.82;;;4.45;;
53835;SDS011;39737;43.334;21.936;2023-11-21T08:08:33;6.15;;;4.53;;
53835;SDS011;39737;43.334;21.936;2023-11-21T08:11:20;4.65;;;3.70;;
53835;SDS011;39737;43.334;21.936;2023-11-21T08:14:08;9.02;;;3.30;;
53835;SDS011;39737;43.334;21.936;2023-11-21T08:16:54;6.18;;;4.03;;
53835;SDS011;39737;43.334;21.936;2023-11-21T08:19:43;6.28;;;4.63;;
53835;SDS011;39737;43.334;21.936;2023-11-21T08:22:35;3.93;;;3.27;;
53835;SDS011;39737;43.334;21.936;2023-11-21T08:25:22;4.45;;;3.30;;
53835;SDS011;39737;43.334;21.936;2023-11-21T08:28:13;7.90;;;4.68;;
53835;SDS011;39737;43.334;21.936;2023-11-21T08:31:02;13.30;;;3.90;;
53835;SDS011;39737;43.334;21.936;2023-11-21T08:33:50;9.40;;;5.35;;
53835;SDS011;39737;43.334;21.936;2023-11-21T08:36:40;9.65;;;6.05;;
53835;SDS011;39737;43.334;21.936;2023-11-21T08:39:29;22.13;;;6.88;;
53835;SDS011;39737;43.334;21.936;2023-11-21T08:42:16;6.82;;;6.20;;
53835;SDS011;39737;43.334;21.936;2023-11-21T08:45:04;6.70;;;3.47;;
53835;SDS011;39737;43.334;21.936;2023-11-21T08:47:50;2.70;;;2.55;;
53835;SDS011;39737;43.334;21.936;2023-11-21T08:50:37;2.60;;;2.45;;
53835;SDS011;39737;43.334;21.936;2023-11-21T08:53:23;3.05;;;2.75;;
53835;SDS011;39737;43.334;21.936;2023-11-21T08:56:13;11.98;;;6.43;;
53835;SDS011;39737;43.334;21.936;2023-11-21T08:59:00;5.38;;;3.28;;
53835;SDS011;39737;43.334;21.936;2023-11-21T09:01:48;14.13;;;8.23;;
53835;SDS011;39737;43.334;21.936;2023-11-21T09:04:34;6.65;;;4.68;;
53835;SDS011;39737;43.334;21.936;2023-11-21T09:07:21;9.90;;;4.97;;
53835;SDS011;39737;43.334;21.936;2023-11-21T09:10:07;7.85;;;4.72;;
53835;SDS011;39737;43.334;21.936;2023-11-21T09:12:55;8.95;;;3.53;;
53835;SDS011;39737;43.334;21.936;2023-11-21T09:15:41;10.70;;;4.28;;
53835;SDS011;39737;43.334;21.936;2023-11-21T09:18:27;3.45;;;3.00;;
53835;SDS011;39737;43.334;21.936;2023-11-21T09:21:14;18.25;;;8.23;;
53835;SDS011;39737;43.334;21.936;2023-11-21T09:24:00;10.00;;;4.65;;
53835;SDS011;39737;43.334;21.936;2023-11-21T09:26:46;36.35;;;22.77;;
53835;SDS011;39737;43.334;21.936;2023-11-21T09:29:32;66.43;;;26.58;;
53835;SDS011;39737;43.334;21.936;2023-11-21T09:32:19;24.80;;;14.93;;
53835;SDS011;39737;43.334;21.936;2023-11-21T09:35:07;22.10;;;13.35;;
53835;SDS011;39737;43.334;21.936;2023-11-21T09:37:54;46.38;;;10.52;;
53835;SDS011;39737;43.334;21.936;2023-11-21T09:40:41;21.27;;;9.38;;
53835;SDS011;39737;43.334;21.936;2023-11-21T09:43:27;24.48;;;14.02;;
53835;SDS011;39737;43.334;21.936;2023-11-21T09:46:14;52.80;;;21.63;;
53835;SDS011;39737;43.334;21.936;2023-11-21T09:49:05;28.92;;;12.48;;
53835;SDS011;39737;43.334;21.936;2023-11-21T09:51:57;13.02;;;7.47;;
53835;SDS011;39737;43.334;21.936;2023-11-21T09:54:44;17.98;;;9.18;;
53835;SDS011;39737;43.334;21.936;2023-11-21T09:57:30;52.33;;;24.40;;
53835;SDS011;39737;43.334;21.936;2023-11-21T10:00:17;39.38;;;16.63;;
53835;SDS011;39737;43.334;21.936;2023-11-21T10:03:06;150.10;;;71.65;;
53835;SDS011;39737;43.334;21.936;2023-11-21T10:05:53;214.40;;;85.65;;
53835;SDS011;39737;43.334;21.936;2023-11-21T10:08:39;325.20;;;127.07;;
53835;SDS011;39737;43.334;21.936;2023-11-21T10:11:41;61.20;;;25.55;;
53835;SDS011;39737;43.334;21.936;2023-11-21T10:14:27;48.92;;;22.17;;
53835;SDS011;39737;43.334;21.936;2023-11-21T10:17:15;20.73;;;10.27;;
53835;SDS011;39737;43.334;21.936;2023-11-21T10:20:07;74.63;;;36.10;;
53835;SDS011;39737;43.334;21.936;2023-11-21T10:22:57;91.13;;;43.45;;
53835;SDS011;39737;43.334;21.936;2023-11-21T10:25:52;40.60;;;16.83;;
53835;SDS011;39737;43.334;21.936;2023-11-21T10:28:59;24.88;;;13.40;;
53835;SDS011;39737;43.334;21.936;2023-11-21T10:31:49;79.20;;;40.95;;
53835;SDS011;39737;43.334;21.936;2023-11-21T10:34:35;33.90;;;16.35;;
53835;SDS011;39737;43.334;21.936;2023-11-21T10:37:21;81.22;;;39.42;;
53835;SDS011;39737;43.334;21.936;2023-11-21T10:40:08;22.35;;;13.15;;
53835;SDS011;39737;43.334;21.936;2023-11-21T10:43:05;20.83;;;12.10;;
53835;SDS011;39737;43.334;21.936;2023-11-21T10:45:51;73.82;;;34.58;;
53835;SDS011;39737;43.334;21.936;2023-11-21T10:48:38;70.90;;;35.08;;
53835;SDS011;39737;43.334;21.936;2023-11-21T10:51:25;69.63;;;31.83;;
53835;SDS011;39737;43.334;21.936;2023-11-21T10:54:11;26.40;;;11.48;;
53835;SDS011;39737;43.334;21.936;2023-11-21T10:56:59;14.00;;;9.65;;
53835;SDS011;39737;43.334;21.936;2023-11-21T10:59:46;24.50;;;10.15;;
53835;SDS011;39737;43.334;21.936;2023-11-21T11:02:33;67.95;;;34.95;;
53835;SDS011;39737;43.334;21.936;2023-11-21T11:05:22;59.90;;;32.25;;
53835;SDS011;39737;43.334;21.936;2023-11-21T11:08:09;117.97;;;51.22;;
53835;SDS011;39737;43.334;21.936;2023-11-21T11:10:58;181.82;;;83.38;;
53835;SDS011;39737;43.334;21.936;2023-11-21T11:13:44;81.50;;;39.55;;
53835;SDS011;39737;43.334;21.936;2023-11-21T11:16:41;32.90;;;18.35;;
53835;SDS011;39737;43.334;21.936;2023-11-21T11:19:29;41.60;;;21.17;;
53835;SDS011;39737;43.334;21.936;2023-11-21T11:22:29;169.10;;;62.85;;
53835;SDS011;39737;43.334;21.936;2023-11-21T11:28:32;100.55;;;44.05;;
53835;SDS011;39737;43.334;21.936;2023-11-21T11:34:33;61.00;;;28.25;;
53835;SDS011;39737;43.334;21.936;2023-11-21T11:37:21;44.47;;;23.25;;
53835;SDS011;39737;43.334;21.936;2023-11-21T11:40:11;12.05;;;7.55;;
53835;SDS011;39737;43.334;21.936;2023-11-21T11:42:58;41.58;;;19.63;;
53835;SDS011;39737;43.334;21.936;2023-11-21T11:45:45;36.15;;;18.95;;
53835;SDS011;39737;43.334;21.936;2023-11-21T11:48:41;6.85;;;5.43;;
53835;SDS011;39737;43.334;21.936;2023-11-21T11:51:27;22.42;;;12.57;;
53835;SDS011;39737;43.334;21.936;2023-11-21T11:54:36;22.90;;;10.63;;
53835;SDS011;39737;43.334;21.936;2023-11-21T11:57:25;6.72;;;3.10;;
53835;SDS011;39737;43.334;21.936;2023-11-21T12:00:13;11.75;;;4.60;;
53835;SDS011;39737;43.334;21.936;2023-11-21T12:03:03;6.13;;;3.35;;
53835;SDS011;39737;43.334;21.936;2023-11-21T12:05:50;20.30;;;9.20;;
53835;SDS011;39737;43.334;21.936;2023-11-21T12:08:38;21.15;;;10.35;;
53835;SDS011;39737;43.334;21.936;2023-11-21T12:11:30;8.82;;;4.50;;
53835;SDS011;39737;43.334;21.936;2023-11-21T12:14:16;6.78;;;4.05;;
53835;SDS011;39737;43.334;21.936;2023-11-21T12:17:03;30.88;;;15.27;;
53835;SDS011;39737;43.334;21.936;2023-11-21T12:20:01;31.48;;;15.60;;
53835;SDS011;39737;43.334;21.936;2023-11-21T12:22:56;16.55;;;7.95;;
53835;SDS011;39737;43.334;21.936;2023-11-21T12:25:42;40.88;;;21.17;;
53835;SDS011;39737;43.334;21.936;2023-11-21T12:28:29;40.92;;;19.20;;
53835;SDS011;39737;43.334;21.936;2023-11-21T12:31:15;31.90;;;16.90;;
53835;SDS011;39737;43.334;21.936;2023-11-21T12:34:07;8.27;;;6.00;;
53835;SDS011;39737;43.334;21.936;2023-11-21T12:36:54;26.67;;;13.93;;
53835;SDS011;39737;43.334;21.936;2023-11-21T12:39:41;24.25;;;13.63;;
53835;SDS011;39737;43.334;21.936;2023-11-21T12:42:28;27.13;;;15.80;;
53835;SDS011;39737;43.334;21.936;2023-11-21T12:48:04;10.27;;;5.53;;
53835;SDS011;39737;43.334;21.936;2023-11-21T12:50:55;7.85;;;5.95;;
53835;SDS011;39737;43.334;21.936;2023-11-21T12:53:46;31.90;;;15.95;;
53835;SDS011;39737;43.334;21.936;2023-11-21T12:56:33;10.57;;;4.15;;
53835;SDS011;39737;43.334;21.936;2023-11-21T12:59:20;11.57;;;6.07;;
53835;SDS011;39737;43.334;21.936;2023-11-21T13:02:06;29.63;;;16.80;;
53835;SDS011;39737;43.334;21.936;2023-11-21T13:04:52;16.85;;;8.63;;
53835;SDS011;39737;43.334;21.936;2023-11-21T13:07:43;9.68;;;6.55;;
53835;SDS011;39737;43.334;21.936;2023-11-21T13:10:33;17.20;;;7.20;;
53835;SDS011;39737;43.334;21.936;2023-11-21T13:13:25;7.18;;;6.22;;
53835;SDS011;39737;43.334;21.936;2023-11-21T13:16:14;93.78;;;37.60;;
53835;SDS011;39737;43.334;21.936;2023-11-21T13:19:01;16.48;;;8.13;;
53835;SDS011;39737;43.334;21.936;2023-11-21T13:21:49;9.68;;;5.43;;
53835;SDS011;39737;43.334;21.936;2023-11-21T13:24:35;3.95;;;3.05;;
53835;SDS011;39737;43.334;21.936;2023-11-21T13:27:21;4.10;;;3.15;;
53835;SDS011;39737;43.334;21.936;2023-11-21T13:30:07;5.65;;;3.08;;
53835;SDS011;39737;43.334;21.936;2023-11-21T13:32:54;4.53;;;2.28;;
53835;SDS011;39737;43.334;21.936;2023-11-21T13:35:43;2.08;;;1.98;;
53835;SDS011;39737;43.334;21.936;2023-11-21T13:38:33;2.15;;;1.83;;
53835;SDS011;39737;43.334;21.936;2023-11-21T13:41:21;1.55;;;1.45;;
53835;SDS011;39737;43.334;21.936;2023-11-21T13:44:17;5.97;;;2.55;;
53835;SDS011;39737;43.334;21.936;2023-11-21T13:47:13;3.97;;;3.58;;
53835;SDS011;39737;43.334;21.936;2023-11-21T13:49:59;4.93;;;3.35;;
53835;SDS011;39737;43.334;21.936;2023-11-21T13:52:46;7.18;;;5.57;;
53835;SDS011;39737;43.334;21.936;2023-11-21T13:55:33;2.78;;;2.58;;
53835;SDS011;39737;43.334;21.936;2023-11-21T13:58:19;2.45;;;1.90;;
53835;SDS011;39737;43.334;21.936;2023-11-21T14:01:09;3.92;;;3.33;;
53835;SDS011;39737;43.334;21.936;2023-11-21T14:04:25;20.83;;;11.70;;
53835;SDS011;39737;43.334;21.936;2023-11-21T14:07:41;6.60;;;3.97;;
53835;SDS011;39737;43.334;21.936;2023-11-21T14:10:34;6.43;;;4.30;;
53835;SDS011;39737;43.334;21.936;2023-11-21T14:13:28;2.75;;;2.58;;
53835;SDS011;39737;43.334;21.936;2023-11-21T14:16:15;8.20;;;4.93;;
53835;SDS011;39737;43.334;21.936;2023-11-21T14:19:02;4.47;;;4.00;;
53835;SDS011;39737;43.334;21.936;2023-11-21T14:22:00;3.03;;;2.80;;
53835;SDS011;39737;43.334;21.936;2023-11-21T14:24:46;4.30;;;2.78;;
53835;SDS011;39737;43.334;21.936;2023-11-21T14:27:33;13.05;;;3.83;;
53835;SDS011;39737;43.334;21.936;2023-11-21T14:30:21;2.58;;;2.17;;
53835;SDS011;39737;43.334;21.936;2023-11-21T14:33:08;2.53;;;2.00;;
53835;SDS011;39737;43.334;21.936;2023-11-21T14:35:57;5.43;;;3.65;;
53835;SDS011;39737;43.334;21.936;2023-11-21T14:38:43;4.95;;;2.08;;
53835;SDS011;39737;43.334;21.936;2023-11-21T14:41:29;6.88;;;2.60;;
53835;SDS011;39737;43.334;21.936;2023-11-21T14:44:16;2.78;;;2.50;;
53835;SDS011;39737;43.334;21.936;2023-11-21T14:47:03;4.97;;;2.45;;
53835;SDS011;39737;43.334;21.936;2023-11-21T14:49:53;3.05;;;2.42;;
53835;SDS011;39737;43.334;21.936;2023-11-21T14:52:40;1.63;;;1.52;;
53835;SDS011;39737;43.334;21.936;2023-11-21T14:55:41;6.47;;;3.75;;
53835;SDS011;39737;43.334;21.936;2023-11-21T14:58:36;2.67;;;2.47;;
53835;SDS011;39737;43.334;21.936;2023-11-21T15:01:24;8.13;;;4.30;;
53835;SDS011;39737;43.334;21.936;2023-11-21T15:04:30;3.33;;;3.03;;
53835;SDS011;39737;43.334;21.936;2023-11-21T15:07:24;2.85;;;2.05;;
53835;SDS011;39737;43.334;21.936;2023-11-21T15:10:12;2.45;;;2.25;;
53835;SDS011;39737;43.334;21.936;2023-11-21T15:13:01;3.63;;;3.30;;
53835;SDS011;39737;43.334;21.936;2023-11-21T15:15:48;7.63;;;3.53;;
53835;SDS011;39737;43.334;21.936;2023-11-21T15:18:36;2.83;;;2.63;;
53835;SDS011;39737;43.334;21.936;2023-11-21T15:21:22;11.70;;;5.35;;
53835;SDS011;39737;43.334;21.936;2023-11-21T15:24:11;4.10;;;3.70;;
53835;SDS011;39737;43.334;21.936;2023-11-21T15:26:57;3.53;;;2.78;;
53835;SDS011;39737;43.334;21.936;2023-11-21T15:29:43;4.68;;;3.50;;
53835;SDS011;39737;43.334;21.936;2023-11-21T15:32:29;3.10;;;2.85;;
53835;SDS011;39737;43.334;21.936;2023-11-21T15:35:16;4.22;;;3.85;;
53835;SDS011;39737;43.334;21.936;2023-11-21T15:38:02;4.55;;;4.07;;
53835;SDS011;39737;43.334;21.936;2023-11-21T15:40:48;7.75;;;5.07;;
53835;SDS011;39737;43.334;21.936;2023-11-21T15:43:36;58.85;;;38.53;;
53835;SDS011;39737;43.334;21.936;2023-11-21T15:46:22;5.53;;;3.97;;
53835;SDS011;39737;43.334;21.936;2023-11-21T15:49:09;13.65;;;9.07;;
53835;SDS011;39737;43.334;21.936;2023-11-21T15:51:59;4.30;;;3.47;;
53835;SDS011;39737;43.334;21.936;2023-11-21T15:54:46;3.63;;;2.97;;
53835;SDS011;39737;43.334;21.936;2023-11-21T15:57:32;9.40;;;7.47;;
53835;SDS011;39737;43.334;21.936;2023-11-21T16:00:18;3.47;;;3.17;;
53835;SDS011;39737;43.334;21.936;2023-11-21T16:03:07;16.73;;;7.47;;
53835;SDS011;39737;43.334;21.936;2023-11-21T16:05:55;7.82;;;5.70;;
53835;SDS011;39737;43.334;21.936;2023-11-21T16:08:42;5.85;;;4.75;;
53835;SDS011;39737;43.334;21.936;2023-11-21T16:11:28;39.35;;;20.70;;
53835;SDS011;39737;43.334;21.936;2023-11-21T16:14:16;8.77;;;6.32;;
53835;SDS011;39737;43.334;21.936;2023-11-21T16:17:05;2.95;;;2.75;;
53835;SDS011;39737;43.334;21.936;2023-11-21T16:19:54;4.68;;;4.30;;
53835;SDS011;39737;43.334;21.936;2023-11-21T16:22:42;7.72;;;4.13;;
53835;SDS011;39737;43.334;21.936;2023-11-21T16:25:29;5.70;;;3.70;;
53835;SDS011;39737;43.334;21.936;2023-11-21T16:28:15;3.63;;;3.30;;
53835;SDS011;39737;43.334;21.936;2023-11-21T16:31:02;4.72;;;4.10;;
53835;SDS011;39737;43.334;21.936;2023-11-21T16:33:48;6.53;;;3.95;;
53835;SDS011;39737;43.334;21.936;2023-11-21T16:36:34;5.53;;;2.22;;
53835;SDS011;39737;43.334;21.936;2023-11-21T16:39:20;4.45;;;3.08;;